sensor_id;sensor_type;location;lat;lon;timestamp;temperature;humidity
55213;DHT22;41083;52.932;6.674;2023-04-19T00:01:31;8.70;99.90
55213;DHT22;41083;52.932;6.674;2023-04-19T00:03:57;8.70;99.90
55213;DHT22;41083;52.932;6.674;2023-04-19T00:06:22;8.70;99.90
55213;DHT22;41083;52.932;6.674;2023-04-19T00:08:49;8.70;99.90
55213;DHT22;41083;52.932;6.674;2023-04-19T00:11:14;8.70;99.90
55213;DHT22;41083;52.932;6.674;2023-04-19T00:13:40;8.70;99.90
55213;DHT22;41083;52.932;6.674;2023-04-19T00:16:06;8.70;99.90
55213;DHT22;41083;52.932;6.674;2023-04-19T00:18:32;8.60;99.90
55213;DHT22;41083;52.932;6.674;2023-04-19T00:20:57;8.60;99.90
55213;DHT22;41083;52.932;6.674;2023-04-19T00:23:23;8.60;99.90
55213;DHT22;41083;52.932;6.674;2023-04-19T00:25:50;8.60;99.90
55213;DHT22;41083;52.932;6.674;2023-04-19T00:28:15;8.70;99.90
55213;DHT22;41083;52.932;6.674;2023-04-19T00:30:41;8.50;99.90
55213;DHT22;41083;52.932;6.674;2023-04-19T00:33:07;8.50;99.90
55213;DHT22;41083;52.932;6.674;2023-04-19T00:35:40;8.50;99.90
55213;DHT22;41083;52.932;6.674;2023-04-19T00:38:09;8.50;99.90
55213;DHT22;41083;52.932;6.674;2023-04-19T00:40:35;8.50;99.90
55213;DHT22;41083;52.932;6.674;2023-04-19T00:43:01;8.40;99.90
55213;DHT22;41083;52.932;6.674;2023-04-19T00:45:27;8.40;99.90
55213;DHT22;41083;52.932;6.674;2023-04-19T00:47:53;8.40;99.90
55213;DHT22;41083;52.932;6.674;2023-04-19T00:50:19;8.40;99.90
55213;DHT22;41083;52.932;6.674;2023-04-19T00:52:45;8.40;99.90
55213;DHT22;41083;52.932;6.674;2023-04-19T00:55:11;8.40;99.90
55213;DHT22;41083;52.932;6.674;2023-04-19T00:57:37;8.30;99.90
55213;DHT22;41083;52.932;6.674;2023-04-19T01:00:03;8.30;99.90
55213;DHT22;41083;52.932;6.674;2023-04-19T01:02:31;8.30;99.90
55213;DHT22;41083;52.932;6.674;2023-04-19T01:04:57;8.30;99.90
55213;DHT22;41083;52.932;6.674;2023-04-19T01:07:22;8.30;99.90
55213;DHT22;41083;52.932;6.674;2023-04-19T01:09:48;8.30;99.90
55213;DHT22;41083;52.932;6.674;2023-04-19T01:12:14;8.30;99.90
55213;DHT22;41083;52.932;6.674;2023-04-19T01:14:39;8.30;99.90
55213;DHT22;41083;52.932;6.674;2023-04-19T01:17:06;8.20;99.90
55213;DHT22;41083;52.932;6.674;2023-04-19T01:19:32;8.20;99.90
55213;DHT22;41083;52.932;6.674;2023-04-19T01:21:59;8.20;99.90
55213;DHT22;41083;52.932;6.674;2023-04-19T01:24:25;8.20;99.90
55213;DHT22;41083;52.932;6.674;2023-04-19T01:26:50;8.20;99.90
55213;DHT22;41083;52.932;6.674;2023-04-19T01:29:16;8.20;99.90
55213;DHT22;41083;52.932;6.674;2023-04-19T01:31:43;8.20;99.90
55213;DHT22;41083;52.932;6.674;2023-04-19T01:34:13;8.20;99.90
55213;DHT22;41083;52.932;6.674;2023-04-19T01:36:39;8.20;99.90
55213;DHT22;41083;52.932;6.674;2023-04-19T01:39:04;8.10;99.90
55213;DHT22;41083;52.932;6.674;2023-04-19T01:41:30;8.10;99.90
55213;DHT22;41083;52.932;6.674;2023-04-19T01:43:56;8.10;99.90
55213;DHT22;41083;52.932;6.674;2023-04-19T01:46:22;8.10;99.90
55213;DHT22;41083;52.932;6.674;2023-04-19T01:48:47;8.10;99.90
55213;DHT22;41083;52.932;6.674;2023-04-19T01:51:13;8.10;99.90
55213;DHT22;41083;52.932;6.674;2023-04-19T01:53:39;8.00;99.90
55213;DHT22;41083;52.932;6.674;2023-04-19T01:56:05;8.00;99.90
55213;DHT22;41083;52.932;6.674;2023-04-19T01:58:30;7.90;99.90
55213;DHT22;41083;52.932;6.674;2023-04-19T02:00:56;7.90;99.90
55213;DHT22;41083;52.932;6.674;2023-04-19T02:03:21;7.90;99.90
55213;DHT22;41083;52.932;6.674;2023-04-19T02:05:47;7.90;99.90
55213;DHT22;41083;52.932;6.674;2023-04-19T02:08:13;7.90;99.90
55213;DHT22;41083;52.932;6.674;2023-04-19T02:10:38;7.80;99.90
55213;DHT22;41083;52.932;6.674;2023-04-19T02:13:04;7.80;99.90
55213;DHT22;41083;52.932;6.674;2023-04-19T02:15:29;7.70;99.90
55213;DHT22;41083;52.932;6.674;2023-04-19T02:17:55;7.70;99.90
55213;DHT22;41083;52.932;6.674;2023-04-19T02:20:21;7.70;99.90
55213;DHT22;41083;52.932;6.674;2023-04-19T02:22:48;7.70;99.90
55213;DHT22;41083;52.932;6.674;2023-04-19T02:25:13;7.70;99.90
55213;DHT22;41083;52.932;6.674;2023-04-19T02:27:40;7.60;99.90
55213;DHT22;41083;52.932;6.674;2023-04-19T02:30:07;7.60;99.90
55213;DHT22;41083;52.932;6.674;2023-04-19T02:32:32;7.60;99.90
55213;DHT22;41083;52.932;6.674;2023-04-19T02:34:58;7.60;99.90
55213;DHT22;41083;52.932;6.674;2023-04-19T02:37:23;7.60;99.90
55213;DHT22;41083;52.932;6.674;2023-04-19T02:39:49;7.50;99.90
55213;DHT22;41083;52.932;6.674;2023-04-19T02:42:15;7.50;99.90
55213;DHT22;41083;52.932;6.674;2023-04-19T02:44:40;7.50;99.90
55213;DHT22;41083;52.932;6.674;2023-04-19T02:47:06;7.50;99.90
55213;DHT22;41083;52.932;6.674;2023-04-19T02:49:32;7.50;99.90
55213;DHT22;41083;52.932;6.674;2023-04-19T02:52:00;7.50;99.90
55213;DHT22;41083;52.932;6.674;2023-04-19T02:54:26;7.50;99.90
55213;DHT22;41083;52.932;6.674;2023-04-19T02:56:52;7.40;99.90
55213;DHT22;41083;52.932;6.674;2023-04-19T02:59:17;7.40;99.90
55213;DHT22;41083;52.932;6.674;2023-04-19T03:01:43;7.30;99.90
55213;DHT22;41083;52.932;6.674;2023-04-19T03:04:08;7.30;99.90
55213;DHT22;41083;52.932;6.674;2023-04-19T03:06:34;7.30;99.90
55213;DHT22;41083;52.932;6.674;2023-04-19T03:09:00;7.30;99.90
55213;DHT22;41083;52.932;6.674;2023-04-19T03:11:26;7.30;99.90
55213;DHT22;41083;52.932;6.674;2023-04-19T03:13:51;7.30;99.90
55213;DHT22;41083;52.932;6.674;2023-04-19T03:16:17;7.30;99.90
55213;DHT22;41083;52.932;6.674;2023-04-19T03:18:43;7.30;99.90
55213;DHT22;41083;52.932;6.674;2023-04-19T03:21:08;7.20;99.90
55213;DHT22;41083;52.932;6.674;2023-04-19T03:23:34;7.20;99.90
55213;DHT22;41083;52.932;6.674;2023-04-19T03:26:00;7.20;99.90
55213;DHT22;41083;52.932;6.674;2023-04-19T03:28:26;7.20;99.90
55213;DHT22;41083;52.932;6.674;2023-04-19T03:30:51;7.20;99.90
55213;DHT22;41083;52.932;6.674;2023-04-19T03:33:17;7.20;99.90
55213;DHT22;41083;52.932;6.674;2023-04-19T03:35:43;7.10;99.90
55213;DHT22;41083;52.932;6.674;2023-04-19T03:38:09;7.20;99.90
55213;DHT22;41083;52.932;6.674;2023-04-19T03:40:36;7.10;99.90
55213;DHT22;41083;52.932;6.674;2023-04-19T03:43:02;7.10;99.90
55213;DHT22;41083;52.932;6.674;2023-04-19T03:45:28;7.10;99.90
55213;DHT22;41083;52.932;6.674;2023-04-19T03:47:54;7.10;99.90
55213;DHT22;41083;52.932;6.674;2023-04-19T03:50:19;7.10;99.90
55213;DHT22;41083;52.932;6.674;2023-04-19T03:52:45;7.10;99.90
55213;DHT22;41083;52.932;6.674;2023-04-19T03:55:10;7.00;99.90
55213;DHT22;41083;52.932;6.674;2023-04-19T03:57:39;7.00;99.90
55213;DHT22;41083;52.932;6.674;2023-04-19T04:00:05;7.00;99.90
55213;DHT22;41083;52.932;6.674;2023-04-19T04:02:38;7.00;99.90
55213;DHT22;41083;52.932;6.674;2023-04-19T04:05:05;7.00;99.90
55213;DHT22;41083;52.932;6.674;2023-04-19T04:07:30;6.90;99.90
55213;DHT22;41083;52.932;6.674;2023-04-19T04:09:56;6.90;99.90
55213;DHT22;41083;52.932;6.674;2023-04-19T04:12:22;6.90;99.90
55213;DHT22;41083;52.932;6.674;2023-04-19T04:14:47;6.90;99.90
55213;DHT22;41083;52.932;6.674;2023-04-19T04:17:13;6.80;99.90
55213;DHT22;41083;52.932;6.674;2023-04-19T04:19:39;6.80;99.90
55213;DHT22;41083;52.932;6.674;2023-04-19T04:22:05;6.80;99.90
55213;DHT22;41083;52.932;6.674;2023-04-19T04:24:36;6.80;99.90
55213;DHT22;41083;52.932;6.674;2023-04-19T04:27:02;6.80;99.90
55213;DHT22;41083;52.932;6.674;2023-04-19T04:29:28;6.70;99.90
55213;DHT22;41083;52.932;6.674;2023-04-19T04:31:54;6.70;99.90
55213;DHT22;41083;52.932;6.674;2023-04-19T04:34:21;6.60;99.90
55213;DHT22;41083;52.932;6.674;2023-04-19T04:36:47;6.60;99.90
55213;DHT22;41083;52.932;6.674;2023-04-19T04:39:15;6.60;99.90
55213;DHT22;41083;52.932;6.674;2023-04-19T04:41:40;6.60;99.90
55213;DHT22;41083;52.932;6.674;2023-04-19T04:44:06;6.50;99.90
55213;DHT22;41083;52.932;6.674;2023-04-19T04:46:33;6.50;99.90
55213;DHT22;41083;52.932;6.674;2023-04-19T04:48:59;6.50;99.90
55213;DHT22;41083;52.932;6.674;2023-04-19T04:51:25;6.50;99.90
55213;DHT22;41083;52.932;6.674;2023-04-19T04:53:51;6.50;99.90
55213;DHT22;41083;52.932;6.674;2023-04-19T04:56:17;6.60;99.90
55213;DHT22;41083;52.932;6.674;2023-04-19T04:58:43;6.50;99.90
55213;DHT22;41083;52.932;6.674;2023-04-19T05:01:08;6.50;99.90
55213;DHT22;41083;52.932;6.674;2023-04-19T05:03:34;6.50;99.90
55213;DHT22;41083;52.932;6.674;2023-04-19T05:05:59;6.50;99.90
55213;DHT22;41083;52.932;6.674;2023-04-19T05:08:25;6.50;99.90
55213;DHT22;41083;52.932;6.674;2023-04-19T05:10:51;6.50;99.90
55213;DHT22;41083;52.932;6.674;2023-04-19T05:13:17;6.50;99.90
55213;DHT22;41083;52.932;6.674;2023-04-19T05:15:43;6.50;99.90
55213;DHT22;41083;52.932;6.674;2023-04-19T05:18:08;6.50;99.90
55213;DHT22;41083;52.932;6.674;2023-04-19T05:20:34;6.50;99.90
55213;DHT22;41083;52.932;6.674;2023-04-19T05:23:00;6.50;99.90
55213;DHT22;41083;52.932;6.674;2023-04-19T05:25:27;6.50;99.90
55213;DHT22;41083;52.932;6.674;2023-04-19T05:27:53;6.60;99.90
55213;DHT22;41083;52.932;6.674;2023-04-19T05:30:19;6.60;99.90
55213;DHT22;41083;52.932;6.674;2023-04-19T05:32:45;6.60;99.90
55213;DHT22;41083;52.932;6.674;2023-04-19T05:35:10;6.60;99.90
55213;DHT22;41083;52.932;6.674;2023-04-19T05:37:37;6.60;99.90
55213;DHT22;41083;52.932;6.674;2023-04-19T05:40:04;6.60;99.90
55213;DHT22;41083;52.932;6.674;2023-04-19T05:42:30;6.70;99.90
55213;DHT22;41083;52.932;6.674;2023-04-19T05:44:56;6.70;99.90
55213;DHT22;41083;52.932;6.674;2023-04-19T05:47:21;6.70;99.90
55213;DHT22;41083;52.932;6.674;2023-04-19T05:49:47;6.70;99.90
55213;DHT22;41083;52.932;6.674;2023-04-19T05:52:13;6.70;99.90
55213;DHT22;41083;52.932;6.674;2023-04-19T05:54:39;6.70;99.90
55213;DHT22;41083;52.932;6.674;2023-04-19T05:57:04;6.80;99.90
55213;DHT22;41083;52.932;6.674;2023-04-19T05:59:30;6.80;99.80
55213;DHT22;41083;52.932;6.674;2023-04-19T06:01:56;6.80;99.60
55213;DHT22;41083;52.932;6.674;2023-04-19T06:04:21;6.80;99.40
55213;DHT22;41083;52.932;6.674;2023-04-19T06:06:47;6.80;99.10
55213;DHT22;41083;52.932;6.674;2023-04-19T06:09:13;6.80;98.70
55213;DHT22;41083;52.932;6.674;2023-04-19T06:11:39;6.80;99.40
55213;DHT22;41083;52.932;6.674;2023-04-19T06:14:05;6.80;99.10
55213;DHT22;41083;52.932;6.674;2023-04-19T06:16:31;6.90;99.20
55213;DHT22;41083;52.932;6.674;2023-04-19T06:18:57;6.90;98.90
55213;DHT22;41083;52.932;6.674;2023-04-19T06:21:22;6.90;98.70
55213;DHT22;41083;52.932;6.674;2023-04-19T06:23:48;6.90;98.80
55213;DHT22;41083;52.932;6.674;2023-04-19T06:26:14;6.90;98.40
55213;DHT22;41083;52.932;6.674;2023-04-19T06:28:39;7.00;98.30
55213;DHT22;41083;52.932;6.674;2023-04-19T06:31:05;7.00;98.40
55213;DHT22;41083;52.932;6.674;2023-04-19T06:33:31;7.00;98.40
55213;DHT22;41083;52.932;6.674;2023-04-19T06:35:56;7.10;98.10
55213;DHT22;41083;52.932;6.674;2023-04-19T06:38:22;7.10;97.70
55213;DHT22;41083;52.932;6.674;2023-04-19T06:40:48;7.10;98.00
55213;DHT22;41083;52.932;6.674;2023-04-19T06:43:13;7.20;97.80
55213;DHT22;41083;52.932;6.674;2023-04-19T06:45:39;7.20;97.90
55213;DHT22;41083;52.932;6.674;2023-04-19T06:48:05;7.30;97.90
55213;DHT22;41083;52.932;6.674;2023-04-19T06:50:30;7.30;97.90
55213;DHT22;41083;52.932;6.674;2023-04-19T06:52:56;7.40;97.60
55213;DHT22;41083;52.932;6.674;2023-04-19T06:55:22;7.50;97.20
55213;DHT22;41083;52.932;6.674;2023-04-19T06:57:47;7.50;97.40
55213;DHT22;41083;52.932;6.674;2023-04-19T07:00:13;7.60;97.20
55213;DHT22;41083;52.932;6.674;2023-04-19T07:02:39;7.70;96.80
55213;DHT22;41083;52.932;6.674;2023-04-19T07:05:06;7.70;96.50
55213;DHT22;41083;52.932;6.674;2023-04-19T07:07:32;7.70;96.40
55213;DHT22;41083;52.932;6.674;2023-04-19T07:09:58;7.80;96.50
55213;DHT22;41083;52.932;6.674;2023-04-19T07:12:24;7.80;96.10
55213;DHT22;41083;52.932;6.674;2023-04-19T07:14:50;7.80;96.10
55213;DHT22;41083;52.932;6.674;2023-04-19T07:17:21;7.90;95.90
55213;DHT22;41083;52.932;6.674;2023-04-19T07:19:47;7.90;95.90
55213;DHT22;41083;52.932;6.674;2023-04-19T07:22:13;7.90;96.20
55213;DHT22;41083;52.932;6.674;2023-04-19T07:24:39;8.00;96.30
55213;DHT22;41083;52.932;6.674;2023-04-19T07:27:06;8.00;96.50
55213;DHT22;41083;52.932;6.674;2023-04-19T07:29:34;8.00;96.10
55213;DHT22;41083;52.932;6.674;2023-04-19T07:31:59;8.10;95.40
55213;DHT22;41083;52.932;6.674;2023-04-19T07:34:26;8.10;94.90
55213;DHT22;41083;52.932;6.674;2023-04-19T07:36:51;8.20;95.40
55213;DHT22;41083;52.932;6.674;2023-04-19T07:39:17;8.20;95.40
55213;DHT22;41083;52.932;6.674;2023-04-19T07:41:44;8.30;95.40
55213;DHT22;41083;52.932;6.674;2023-04-19T07:44:09;8.30;94.80
55213;DHT22;41083;52.932;6.674;2023-04-19T07:46:36;8.40;95.20
55213;DHT22;41083;52.932;6.674;2023-04-19T07:49:02;8.40;94.80
55213;DHT22;41083;52.932;6.674;2023-04-19T07:51:27;8.50;94.90
55213;DHT22;41083;52.932;6.674;2023-04-19T07:53:53;8.50;94.90
55213;DHT22;41083;52.932;6.674;2023-04-19T07:56:19;8.60;94.40
55213;DHT22;41083;52.932;6.674;2023-04-19T07:58:46;8.50;93.70
55213;DHT22;41083;52.932;6.674;2023-04-19T08:01:12;8.60;93.80
55213;DHT22;41083;52.932;6.674;2023-04-19T08:03:38;8.60;93.30
55213;DHT22;41083;52.932;6.674;2023-04-19T08:06:04;8.70;91.70
55213;DHT22;41083;52.932;6.674;2023-04-19T08:08:31;8.80;92.20
55213;DHT22;41083;52.932;6.674;2023-04-19T08:10:57;8.80;92.30
55213;DHT22;41083;52.932;6.674;2023-04-19T08:13:22;8.80;92.30
55213;DHT22;41083;52.932;6.674;2023-04-19T08:15:48;8.90;92.60
55213;DHT22;41083;52.932;6.674;2023-04-19T08:18:14;8.90;92.10
55213;DHT22;41083;52.932;6.674;2023-04-19T08:20:39;8.90;91.30
55213;DHT22;41083;52.932;6.674;2023-04-19T08:23:09;9.00;92.20
55213;DHT22;41083;52.932;6.674;2023-04-19T08:25:35;9.00;91.80
55213;DHT22;41083;52.932;6.674;2023-04-19T08:28:01;9.00;91.70
55213;DHT22;41083;52.932;6.674;2023-04-19T08:30:27;9.20;90.60
55213;DHT22;41083;52.932;6.674;2023-04-19T08:32:52;9.20;90.00
55213;DHT22;41083;52.932;6.674;2023-04-19T08:35:19;9.20;87.90
55213;DHT22;41083;52.932;6.674;2023-04-19T08:37:44;9.20;89.70
55213;DHT22;41083;52.932;6.674;2023-04-19T08:40:10;9.30;88.60
55213;DHT22;41083;52.932;6.674;2023-04-19T08:42:36;9.30;86.70
55213;DHT22;41083;52.932;6.674;2023-04-19T08:45:02;9.30;84.40
55213;DHT22;41083;52.932;6.674;2023-04-19T08:47:34;9.40;84.20
55213;DHT22;41083;52.932;6.674;2023-04-19T08:50:02;9.40;83.90
55213;DHT22;41083;52.932;6.674;2023-04-19T08:52:29;9.40;84.20
55213;DHT22;41083;52.932;6.674;2023-04-19T08:54:57;9.50;83.60
55213;DHT22;41083;52.932;6.674;2023-04-19T08:57:25;9.60;84.90
55213;DHT22;41083;52.932;6.674;2023-04-19T08:59:51;9.60;83.80
55213;DHT22;41083;52.932;6.674;2023-04-19T09:02:20;9.60;82.70
55213;DHT22;41083;52.932;6.674;2023-04-19T09:04:46;9.70;84.20
55213;DHT22;41083;52.932;6.674;2023-04-19T09:07:32;9.70;82.80
55213;DHT22;41083;52.932;6.674;2023-04-19T09:10:11;9.70;75.60
55213;DHT22;41083;52.932;6.674;2023-04-19T09:12:38;9.70;78.30
55213;DHT22;41083;52.932;6.674;2023-04-19T09:15:05;9.70;80.70
55213;DHT22;41083;52.932;6.674;2023-04-19T09:17:37;9.80;81.90
55213;DHT22;41083;52.932;6.674;2023-04-19T09:20:04;9.80;81.70
55213;DHT22;41083;52.932;6.674;2023-04-19T09:22:31;9.80;81.70
55213;DHT22;41083;52.932;6.674;2023-04-19T09:24:58;9.90;75.90
55213;DHT22;41083;52.932;6.674;2023-04-19T09:27:29;9.90;75.90
55213;DHT22;41083;52.932;6.674;2023-04-19T09:30:00;10.00;75.40
55213;DHT22;41083;52.932;6.674;2023-04-19T09:32:27;10.00;73.00
55213;DHT22;41083;52.932;6.674;2023-04-19T09:34:57;10.10;72.90
55213;DHT22;41083;52.932;6.674;2023-04-19T09:37:24;10.10;71.80
55213;DHT22;41083;52.932;6.674;2023-04-19T09:39:51;10.20;70.20
55213;DHT22;41083;52.932;6.674;2023-04-19T09:42:17;10.20;71.30
55213;DHT22;41083;52.932;6.674;2023-04-19T09:44:59;10.30;70.90
55213;DHT22;41083;52.932;6.674;2023-04-19T09:47:26;10.30;67.50
55213;DHT22;41083;52.932;6.674;2023-04-19T09:50:10;10.40;69.20
55213;DHT22;41083;52.932;6.674;2023-04-19T09:52:36;10.40;66.90
55213;DHT22;41083;52.932;6.674;2023-04-19T09:55:03;10.40;69.10
55213;DHT22;41083;52.932;6.674;2023-04-19T09:57:30;10.50;69.50
55213;DHT22;41083;52.932;6.674;2023-04-19T09:59:58;10.50;70.40
55213;DHT22;41083;52.932;6.674;2023-04-19T10:02:25;10.60;65.20
55213;DHT22;41083;52.932;6.674;2023-04-19T10:04:54;10.60;66.30
55213;DHT22;41083;52.932;6.674;2023-04-19T10:07:21;10.70;64.80
55213;DHT22;41083;52.932;6.674;2023-04-19T10:09:49;10.70;64.70
55213;DHT22;41083;52.932;6.674;2023-04-19T10:12:15;10.70;65.20
55213;DHT22;41083;52.932;6.674;2023-04-19T10:14:42;10.80;65.40
55213;DHT22;41083;52.932;6.674;2023-04-19T10:17:08;10.80;65.20
55213;DHT22;41083;52.932;6.674;2023-04-19T10:19:34;10.90;65.00
55213;DHT22;41083;52.932;6.674;2023-04-19T10:22:03;10.90;65.50
55213;DHT22;41083;52.932;6.674;2023-04-19T10:24:32;11.00;62.70
55213;DHT22;41083;52.932;6.674;2023-04-19T10:32:20;11.20;56.10
55213;DHT22;41083;52.932;6.674;2023-04-19T10:34:46;11.20;58.40
55213;DHT22;41083;52.932;6.674;2023-04-19T10:37:15;11.20;58.30
55213;DHT22;41083;52.932;6.674;2023-04-19T10:39:43;11.20;59.00
55213;DHT22;41083;52.932;6.674;2023-04-19T10:42:08;11.20;58.40
55213;DHT22;41083;52.932;6.674;2023-04-19T10:44:34;11.20;56.90
55213;DHT22;41083;52.932;6.674;2023-04-19T10:47:00;11.30;57.50
55213;DHT22;41083;52.932;6.674;2023-04-19T10:49:29;11.30;57.50
55213;DHT22;41083;52.932;6.674;2023-04-19T10:51:55;11.40;59.00
55213;DHT22;41083;52.932;6.674;2023-04-19T10:54:37;11.30;60.00
55213;DHT22;41083;52.932;6.674;2023-04-19T10:59:34;11.50;58.90
55213;DHT22;41083;52.932;6.674;2023-04-19T11:02:02;11.50;56.90
55213;DHT22;41083;52.932;6.674;2023-04-19T11:06:59;11.60;57.80
55213;DHT22;41083;52.932;6.674;2023-04-19T11:09:38;11.50;56.50
55213;DHT22;41083;52.932;6.674;2023-04-19T11:12:10;11.60;56.00
55213;DHT22;41083;52.932;6.674;2023-04-19T11:14:40;11.60;54.90
55213;DHT22;41083;52.932;6.674;2023-04-19T11:17:16;11.60;54.70
55213;DHT22;41083;52.932;6.674;2023-04-19T11:22:38;11.60;54.90
55213;DHT22;41083;52.932;6.674;2023-04-19T11:27:31;11.60;54.00
55213;DHT22;41083;52.932;6.674;2023-04-19T11:30:11;11.60;54.10
55213;DHT22;41083;52.932;6.674;2023-04-19T11:32:43;11.60;53.90
55213;DHT22;41083;52.932;6.674;2023-04-19T11:35:10;11.70;55.10
55213;DHT22;41083;52.932;6.674;2023-04-19T11:37:37;11.70;56.10
55213;DHT22;41083;52.932;6.674;2023-04-19T11:40:04;11.70;56.50
55213;DHT22;41083;52.932;6.674;2023-04-19T11:42:31;11.70;55.90
55213;DHT22;41083;52.932;6.674;2023-04-19T11:44:56;11.80;56.80
55213;DHT22;41083;52.932;6.674;2023-04-19T11:47:26;11.80;56.20
55213;DHT22;41083;52.932;6.674;2023-04-19T11:49:54;11.80;56.70
55213;DHT22;41083;52.932;6.674;2023-04-19T11:52:24;11.80;56.10
55213;DHT22;41083;52.932;6.674;2023-04-19T11:54:53;11.90;57.20
55213;DHT22;41083;52.932;6.674;2023-04-19T11:57:27;11.80;56.90
55213;DHT22;41083;52.932;6.674;2023-04-19T12:00:07;11.90;56.90
55213;DHT22;41083;52.932;6.674;2023-04-19T12:02:37;11.90;57.20
55213;DHT22;41083;52.932;6.674;2023-04-19T12:05:14;11.90;57.80
55213;DHT22;41083;52.932;6.674;2023-04-19T12:10:24;11.90;54.70
55213;DHT22;41083;52.932;6.674;2023-04-19T12:12:50;12.00;57.90
55213;DHT22;41083;52.932;6.674;2023-04-19T12:15:15;12.00;58.30
55213;DHT22;41083;52.932;6.674;2023-04-19T12:17:59;12.00;58.50
55213;DHT22;41083;52.932;6.674;2023-04-19T12:20:35;12.10;54.10
55213;DHT22;41083;52.932;6.674;2023-04-19T12:23:01;12.10;56.70
55213;DHT22;41083;52.932;6.674;2023-04-19T12:25:31;12.00;57.30
55213;DHT22;41083;52.932;6.674;2023-04-19T12:27:58;12.00;55.30
55213;DHT22;41083;52.932;6.674;2023-04-19T12:30:24;12.00;57.00
55213;DHT22;41083;52.932;6.674;2023-04-19T12:32:51;12.00;56.60
55213;DHT22;41083;52.932;6.674;2023-04-19T12:35:23;12.00;57.40
55213;DHT22;41083;52.932;6.674;2023-04-19T12:37:51;12.00;57.50
55213;DHT22;41083;52.932;6.674;2023-04-19T12:40:17;12.00;57.40
55213;DHT22;41083;52.932;6.674;2023-04-19T12:42:43;12.10;58.40
55213;DHT22;41083;52.932;6.674;2023-04-19T12:45:09;12.00;58.00
55213;DHT22;41083;52.932;6.674;2023-04-19T12:47:35;12.00;58.20
55213;DHT22;41083;52.932;6.674;2023-04-19T12:50:01;12.00;58.70
55213;DHT22;41083;52.932;6.674;2023-04-19T12:52:27;12.00;57.10
55213;DHT22;41083;52.932;6.674;2023-04-19T12:54:52;12.10;57.50
55213;DHT22;41083;52.932;6.674;2023-04-19T12:57:18;12.10;57.80
55213;DHT22;41083;52.932;6.674;2023-04-19T12:59:44;12.10;58.40
55213;DHT22;41083;52.932;6.674;2023-04-19T13:02:09;12.10;59.10
55213;DHT22;41083;52.932;6.674;2023-04-19T13:04:35;12.20;59.80
55213;DHT22;41083;52.932;6.674;2023-04-19T13:07:01;12.10;59.60
55213;DHT22;41083;52.932;6.674;2023-04-19T13:09:27;12.20;59.80
55213;DHT22;41083;52.932;6.674;2023-04-19T13:11:58;12.20;58.60
55213;DHT22;41083;52.932;6.674;2023-04-19T13:14:27;12.20;58.20
55213;DHT22;41083;52.932;6.674;2023-04-19T13:16:53;12.20;58.70
55213;DHT22;41083;52.932;6.674;2023-04-19T13:19:19;12.30;58.50
55213;DHT22;41083;52.932;6.674;2023-04-19T13:21:45;12.20;58.60
55213;DHT22;41083;52.932;6.674;2023-04-19T13:24:10;12.30;58.80
55213;DHT22;41083;52.932;6.674;2023-04-19T13:26:36;12.30;58.40
55213;DHT22;41083;52.932;6.674;2023-04-19T13:29:02;12.30;58.80
55213;DHT22;41083;52.932;6.674;2023-04-19T13:31:28;12.30;58.80
55213;DHT22;41083;52.932;6.674;2023-04-19T13:33:54;12.30;59.20
55213;DHT22;41083;52.932;6.674;2023-04-19T13:36:20;12.40;58.40
55213;DHT22;41083;52.932;6.674;2023-04-19T13:38:46;12.40;58.60
55213;DHT22;41083;52.932;6.674;2023-04-19T13:41:12;12.30;58.00
55213;DHT22;41083;52.932;6.674;2023-04-19T13:43:37;12.30;58.40
55213;DHT22;41083;52.932;6.674;2023-04-19T13:46:04;12.40;58.10
55213;DHT22;41083;52.932;6.674;2023-04-19T13:48:29;12.30;58.80
55213;DHT22;41083;52.932;6.674;2023-04-19T13:50:56;12.40;58.90
55213;DHT22;41083;52.932;6.674;2023-04-19T13:53:23;12.40;58.70
55213;DHT22;41083;52.932;6.674;2023-04-19T13:55:49;12.40;58.80
55213;DHT22;41083;52.932;6.674;2023-04-19T13:58:15;12.50;59.30
55213;DHT22;41083;52.932;6.674;2023-04-19T14:00:40;12.40;58.70
55213;DHT22;41083;52.932;6.674;2023-04-19T14:03:07;12.50;57.50
55213;DHT22;41083;52.932;6.674;2023-04-19T14:05:33;12.50;56.90
55213;DHT22;41083;52.932;6.674;2023-04-19T14:07:58;12.50;57.90
55213;DHT22;41083;52.932;6.674;2023-04-19T14:10:24;12.50;57.90
55213;DHT22;41083;52.932;6.674;2023-04-19T14:12:50;12.50;57.70
55213;DHT22;41083;52.932;6.674;2023-04-19T14:15:19;12.50;57.70
55213;DHT22;41083;52.932;6.674;2023-04-19T14:17:45;12.50;55.00
55213;DHT22;41083;52.932;6.674;2023-04-19T14:20:11;12.50;56.80
55213;DHT22;41083;52.932;6.674;2023-04-19T14:22:37;12.50;55.90
55213;DHT22;41083;52.932;6.674;2023-04-19T14:25:04;12.50;55.70
55213;DHT22;41083;52.932;6.674;2023-04-19T14:27:30;12.50;56.40
55213;DHT22;41083;52.932;6.674;2023-04-19T14:29:56;12.50;56.80
55213;DHT22;41083;52.932;6.674;2023-04-19T14:32:22;12.50;56.90
55213;DHT22;41083;52.932;6.674;2023-04-19T14:34:48;12.60;57.00
55213;DHT22;41083;52.932;6.674;2023-04-19T14:37:14;12.60;56.60
55213;DHT22;41083;52.932;6.674;2023-04-19T14:39:39;12.60;56.50
55213;DHT22;41083;52.932;6.674;2023-04-19T14:42:05;12.70;55.40
55213;DHT22;41083;52.932;6.674;2023-04-19T14:44:31;12.60;56.20
55213;DHT22;41083;52.932;6.674;2023-04-19T14:46:56;12.60;55.30
55213;DHT22;41083;52.932;6.674;2023-04-19T14:49:22;12.50;55.80
55213;DHT22;41083;52.932;6.674;2023-04-19T14:51:48;12.50;55.30
55213;DHT22;41083;52.932;6.674;2023-04-19T14:54:13;12.40;55.40
55213;DHT22;41083;52.932;6.674;2023-04-19T14:56:39;12.50;55.00
55213;DHT22;41083;52.932;6.674;2023-04-19T14:59:05;12.50;53.20
55213;DHT22;41083;52.932;6.674;2023-04-19T15:01:33;12.50;55.60
55213;DHT22;41083;52.932;6.674;2023-04-19T15:03:58;12.50;54.80
55213;DHT22;41083;52.932;6.674;2023-04-19T15:06:24;12.50;55.70
55213;DHT22;41083;52.932;6.674;2023-04-19T15:08:49;12.60;55.00
55213;DHT22;41083;52.932;6.674;2023-04-19T15:11:15;12.50;54.50
55213;DHT22;41083;52.932;6.674;2023-04-19T15:13:41;12.50;54.80
55213;DHT22;41083;52.932;6.674;2023-04-19T15:16:07;12.50;55.40
55213;DHT22;41083;52.932;6.674;2023-04-19T15:18:33;12.50;55.90
55213;DHT22;41083;52.932;6.674;2023-04-19T15:21:01;12.50;54.40
55213;DHT22;41083;52.932;6.674;2023-04-19T15:23:27;12.60;54.30
55213;DHT22;41083;52.932;6.674;2023-04-19T15:25:53;12.70;54.80
55213;DHT22;41083;52.932;6.674;2023-04-19T15:28:19;12.60;55.10
55213;DHT22;41083;52.932;6.674;2023-04-19T15:30:52;12.60;55.00
55213;DHT22;41083;52.932;6.674;2023-04-19T15:33:21;12.50;54.60
55213;DHT22;41083;52.932;6.674;2023-04-19T15:35:50;12.60;54.20
55213;DHT22;41083;52.932;6.674;2023-04-19T15:38:16;12.50;52.10
55213;DHT22;41083;52.932;6.674;2023-04-19T15:40:41;12.50;53.30
55213;DHT22;41083;52.932;6.674;2023-04-19T15:43:07;12.50;54.40
55213;DHT22;41083;52.932;6.674;2023-04-19T15:45:33;12.50;54.70
55213;DHT22;41083;52.932;6.674;2023-04-19T15:47:58;12.40;54.40
55213;DHT22;41083;52.932;6.674;2023-04-19T15:50:24;12.50;53.30
55213;DHT22;41083;52.932;6.674;2023-04-19T15:52:50;12.40;54.10
55213;DHT22;41083;52.932;6.674;2023-04-19T15:55:15;12.40;54.00